Time;durP1;ratioP1;P1;durP2;ratioP2;P2;SDS_P1;SDS_P2;PMS_P1;PMS_P2;Temp;Humidity;BMP_temperature;BMP_pressure;BME280_temperature;BME280_humidity;BME280_pressure;Samples;Min_cycle;Max_cycle;Signal;HPM_P1;HPM_P2
2023/03/15 00:02:24;;;;;;;7.03;1.42;;;;;;;1.66;86.08;100173.38;4825260;29;20207;-73
2023/03/15 00:05:00;;;;;;;9.50;3.28;;;;;;;1.56;87.31;100178.84;4813937;29;20277;-72
2023/03/15 00:07:58;;;;;;;11.55;2.00;;;;;;;1.55;87.46;100187.03;4840480;29;20232;-71
2023/03/15 00:10:32;;;;;;;8.27;2.90;;;;;;;1.54;87.89;100186.19;4840406;29;20574;-72
2023/03/15 00:13:13;;;;;;;5.88;1.92;;;;;;;1.53;86.52;100186.34;4824122;29;20216;-72
2023/03/15 00:16:00;;;;;;;4.60;1.80;;;;;;;1.61;86.90;100192.53;4840773;29;20238;-73
2023/03/15 00:18:36;;;;;;;6.15;1.73;;;;;;;1.57;86.37;100191.19;4829663;29;20251;-73
2023/03/15 00:21:22;;;;;;;1.83;1.23;;;;;;;1.64;87.40;100199.38;4824787;29;20291;-72
2023/03/15 00:23:57;;;;;;;6.80;1.50;;;;;;;1.59;86.15;100204.38;4840329;29;20201;-72
2023/03/15 00:26:33;;;;;;;7.13;1.67;;;;;;;1.61;85.79;100213.88;4840425;29;20242;-73
2023/03/15 00:29:31;;;;;;;11.50;2.47;;;;;;;1.65;86.22;100214.38;4832017;29;20217;-72
2023/03/15 00:32:15;;;;;;;9.85;1.80;;;;;;;1.63;85.42;100227.03;4816513;29;20261;-73
2023/03/15 00:35:01;;;;;;;3.75;1.65;;;;;;;1.62;85.36;100225.38;4829080;29;20211;-72
2023/03/15 00:37:48;;;;;;;6.13;1.35;;;;;;;1.58;86.31;100224.88;4826946;29;20223;-72
2023/03/15 00:40:28;;;;;;;8.98;2.25;;;;;;;1.59;85.98;100241.69;4824486;29;20294;-72
2023/03/15 00:43:04;;;;;;;3.35;1.55;;;;;;;1.57;85.91;100238.34;4839696;29;20303;-72
2023/03/15 00:46:01;;;;;;;13.82;2.63;;;;;;;1.49;86.58;100244.50;4810753;29;20279;-72
2023/03/15 00:48:45;;;;;;;9.32;1.60;;;;;;;1.56;85.98;100250.84;4839424;29;20317;-73
2023/03/15 00:51:36;;;;;;;4.70;2.40;;;;;;;1.55;85.85;100256.34;4839412;29;20204;-72
2023/03/15 00:54:12;;;;;;;3.28;1.65;;;;;;;1.57;85.89;100259.69;4824152;29;20258;-71
2023/03/15 00:56:55;;;;;;;13.40;1.67;;;;;;;1.57;86.15;100260.53;4826335;29;20227;-73
2023/03/15 00:59:34;;;;;;;5.80;1.92;;;;;;;1.54;86.25;100262.69;4828881;29;20196;-72
2023/03/15 01:02:25;;;;;;;1.88;1.65;;;;;;;1.56;85.34;100263.34;4825747;29;20208;-72
2023/03/15 01:05:12;;;;;;;3.42;1.52;;;;;;;1.54;85.89;100262.69;4826256;29;20239;-72
2023/03/15 01:07:53;;;;;;;4.65;2.08;;;;;;;1.53;85.75;100263.66;4839316;29;20232;-72
2023/03/15 01:10:39;;;;;;;2.65;1.35;;;;;;;1.49;85.77;100278.31;4824556;29;20717;-71
2023/03/15 01:13:45;;;;;;;6.20;2.45;;;;;;;1.47;85.55;100275.78;4825353;29;20211;-71
2023/03/15 01:16:27;;;;;;;8.75;1.52;;;;;;;1.44;86.38;100285.94;4839433;29;20232;-71
2023/03/15 01:19:19;;;;;;;3.53;1.52;;;;;;;1.43;86.69;100285.13;4839522;29;20251;-71
2023/03/15 01:22:04;;;;;;;3.92;2.20;;;;;;;1.43;86.02;100284.28;4824239;29;20216;-72
2023/03/15 01:24:43;;;;;;;8.30;1.60;;;;;;;1.41;85.56;100286.25;4824970;29;20695;-72
2023/03/15 01:27:21;;;;;;;8.48;1.77;;;;;;;1.43;86.51;100294.94;4841399;29;20607;-72
2023/03/15 01:29:59;;;;;;;6.95;1.88;;;;;;;1.43;85.73;100292.28;4829223;29;20220;-72
2023/03/15 01:32:34;;;;;;;3.47;1.50;;;;;;;1.45;85.62;100300.97;4823317;29;20208;-71
2023/03/15 01:35:26;;;;;;;3.83;1.80;;;;;;;1.42;85.61;100307.44;4825732;29;20299;-72
2023/03/15 01:38:02;;;;;;;4.70;1.35;;;;;;;1.48;86.86;100303.31;4823739;29;20244;-73
2023/03/15 01:44:56;;;;;;;10.93;2.60;;;;;;;1.52;87.98;100307.31;4824927;29;20250;-73
2023/03/15 01:47:31;;;;;;;4.40;1.30;;;;;;;1.43;86.26;100317.09;4823813;29;20277;-73
2023/03/15 01:50:24;;;;;;;2.65;1.63;;;;;;;1.45;86.87;100315.13;4813141;29;20583;-72
2023/03/15 01:53:04;;;;;;;8.48;1.17;;;;;;;1.40;85.80;100316.59;4822385;29;20565;-73
2023/03/15 01:55:44;;;;;;;4.68;1.48;;;;;;;1.38;86.93;100313.25;4808816;29;20209;-72
2023/03/15 01:58:43;;;;;;;2.95;1.70;;;;;;;1.44;86.81;100312.63;4838672;29;20264;-71
2023/03/15 02:01:36;;;;;;;9.38;1.08;;;;;;;1.42;86.80;100319.91;4841626;29;20615;-73
2023/03/15 02:04:16;;;;;;;13.45;2.17;;;;;;;1.31;87.02;100316.53;4836395;29;20213;-73
2023/03/15 02:07:14;;;;;;;5.05;1.35;;;;;;;1.36;87.50;100317.88;4828995;29;20220;-73
2023/03/15 02:10:05;;;;;;;2.00;1.08;;;;;;;1.30;87.87;100325.53;4825383;29;20208;-73
2023/03/15 02:12:53;;;;;;;3.17;1.90;;;;;;;1.37;88.94;100325.72;4832634;29;20405;-73
2023/03/15 02:16:05;;;;;;;7.90;1.73;;;;;;;1.37;87.56;100332.88;4825464;29;20210;-72
2023/03/15 02:18:54;;;;;;;5.10;1.80;;;;;;;1.35;87.00;100341.06;4823690;29;20299;-72
2023/03/15 02:21:43;;;;;;;4.20;1.27;;;;;;;1.36;87.42;100341.88;4827576;29;20199;-72
2023/03/15 02:24:43;;;;;;;2.58;1.08;;;;;;;1.41;88.20;100344.91;4824199;29;20232;-73
2023/03/15 02:28:09;;;;;;;6.45;2.15;;;;;;;1.30;88.07;100341.53;4824072;29;20259;-72
2023/03/15 02:30:53;;;;;;;3.10;1.40;;;;;;;1.23;88.09;100350.28;4837840;29;20219;-72
2023/03/15 02:33:35;;;;;;;7.28;1.50;;;;;;;1.26;89.61;100358.81;4826020;29;20208;-73
2023/03/15 02:39:26;;;;;;;4.40;1.35;;;;;;;1.10;88.80;100369.34;4822829;29;20248;-71
2023/03/15 02:42:16;;;;;;;3.22;1.65;;;;;;;1.19;89.57;100368.41;4820525;29;20222;-72
2023/03/15 02:44:56;;;;;;;2.15;1.27;;;;;;;1.11;89.34;100365.72;4823707;29;20291;-74
2023/03/15 02:47:35;;;;;;;3.05;1.80;;;;;;;1.05;89.34;100368.97;4820336;29;20255;-73
2023/03/15 02:50:12;;;;;;;3.33;1.58;;;;;;;1.13;89.08;100378.84;4837884;29;20725;-71
2023/03/15 02:52:55;;;;;;;2.75;2.00;;;;;;;1.11;89.52;100375.53;4823671;29;20281;-72
2023/03/15 02:55:36;;;;;;;5.05;1.23;;;;;;;1.09;88.96;100385.47;4809355;29;20215;-73
2023/03/15 02:58:28;;;;;;;6.47;1.75;;;;;;;1.18;90.26;100387.22;4823521;29;20259;-73
2023/03/15 03:01:12;;;;;;;10.73;1.45;;;;;;;1.07;89.66;100387.44;4830870;29;20207;-73
2023/03/15 03:04:05;;;;;;;3.85;1.83;;;;;;;1.06;90.38;100386.66;4837615;29;20205;-73
2023/03/15 03:06:58;;;;;;;16.67;2.15;;;;;;;0.86;90.32;100396.63;4837692;29;20214;-74
2023/03/15 03:09:51;;;;;;;4.07;2.17;;;;;;;1.03;90.46;100399.41;4822372;29;20304;-73
2023/03/15 03:12:30;;;;;;;17.38;2.50;;;;;;;0.98;89.32;100397.22;4837545;29;20208;-73
2023/03/15 03:15:05;;;;;;;3.33;2.00;;;;;;;1.04;90.39;100403.75;4840746;29;20203;-72
2023/03/15 03:18:34;;;;;;;2.28;1.25;;;;;;;0.97;90.08;100411.50;4822177;29;20244;-72
2023/03/15 03:21:16;;;;;;;5.63;1.92;;;;;;;0.97;90.26;100414.19;4838331;29;20248;-73
2023/03/15 03:23:58;;;;;;;3.15;2.20;;;;;;;0.98;90.59;100413.19;4829287;29;20204;-73
2023/03/15 03:26:36;;;;;;;7.88;2.60;;;;;;;0.98;89.71;100423.84;4843567;29;20179;-72
2023/03/15 03:29:16;;;;;;;2.25;1.48;;;;;;;1.04;89.66;100433.91;4844474;29;20228;-73
2023/03/15 03:31:59;;;;;;;2.75;1.45;;;;;;;1.18;89.82;100435.19;4824062;29;20232;-73
2023/03/15 03:34:50;;;;;;;5.15;1.50;;;;;;;1.23;90.23;100439.09;4821519;29;20219;-72
2023/03/15 03:37:55;;;;;;;6.70;1.52;;;;;;;1.30;89.95;100434.00;4822030;29;20712;-73
2023/03/15 03:40:39;;;;;;;4.82;1.83;;;;;;;1.30;89.32;100442.81;4822647;29;20208;-74
2023/03/15 03:43:22;;;;;;;13.88;2.25;;;;;;;1.28;90.10;100435.94;4823470;29;20198;-72
2023/03/15 03:45:59;;;;;;;3.85;1.80;;;;;;;1.26;89.29;100437.91;4829648;29;20219;-74
2023/03/15 03:48:46;;;;;;;3.05;1.73;;;;;;;1.20;89.75;100449.22;4828517;29;20231;-72
2023/03/15 03:51:32;;;;;;;5.00;2.05;;;;;;;1.07;90.10;100454.06;4825869;29;20290;-73
2023/03/15 03:54:37;;;;;;;10.13;2.63;;;;;;;1.05;90.18;100459.56;4841107;29;20305;-73
2023/03/15 04:00:31;;;;;;;10.23;2.08;;;;;;;1.07;90.35;100459.41;4831723;29;20265;-74
2023/03/15 04:03:13;;;;;;;7.47;2.00;;;;;;;1.04;90.04;100465.88;4834393;29;20703;-73
2023/03/15 04:05:56;;;;;;;4.00;2.00;;;;;;;1.01;89.93;100465.34;4840251;29;20236;-74
2023/03/15 04:08:55;;;;;;;14.82;2.15;;;;;;;1.05;90.99;100467.56;4826311;29;20310;-72
2023/03/15 04:11:48;;;;;;;4.63;2.17;;;;;;;0.97;91.00;100472.78;4838903;29;20230;-72
2023/03/15 04:14:31;;;;;;;6.78;2.20;;;;;;;0.95;90.70;100477.44;4843552;29;20242;-73
2023/03/15 04:17:14;;;;;;;2.53;1.33;;;;;;;0.96;90.56;100473.81;4837445;29;20595;-73
2023/03/15 04:19:52;;;;;;;6.43;1.88;;;;;;;0.97;91.07;100479.97;4826498;29;20647;-72
2023/03/15 04:22:35;;;;;;;4.70;1.23;;;;;;;0.96;91.22;100483.63;4840710;29;20238;-74
2023/03/15 04:25:32;;;;;;;7.18;2.25;;;;;;;0.90;91.53;100482.38;4830273;29;20587;-74
2023/03/15 04:31:38;;;;;;;9.88;2.25;;;;;;;0.86;91.55;100494.34;4822113;29;20715;-73
2023/03/15 04:34:38;;;;;;;3.85;3.50;;;;;;;0.85;91.42;100497.97;4840466;29;20209;-73
2023/03/15 04:38:02;;;;;;;7.90;1.85;;;;;;;0.84;92.30;100489.16;4822731;29;20285;-72
2023/03/15 04:44:20;;;;;;;8.18;1.77;;;;;;;0.76;91.55;100499.72;4826623;29;20231;-73
2023/03/15 04:47:10;;;;;;;6.93;2.17;;;;;;;0.67;92.11;100500.63;4824299;29;20203;-72
2023/03/15 04:50:04;;;;;;;4.80;2.03;;;;;;;0.74;91.41;100498.19;4839768;29;20212;-72
2023/03/15 04:53:02;;;;;;;7.25;2.35;;;;;;;0.73;91.55;100505.31;4811667;29;20220;-73
2023/03/15 04:56:01;;;;;;;6.45;2.20;;;;;;;0.77;91.85;100504.06;4821237;29;20671;-73
2023/03/15 04:58:52;;;;;;;2.42;1.60;;;;;;;0.73;91.63;100515.13;4837058;29;20228;-72
2023/03/15 05:01:51;;;;;;;5.60;2.53;;;;;;;0.76;92.44;100518.38;4829453;29;20196;-72
2023/03/15 05:04:36;;;;;;;9.40;2.30;;;;;;;0.75;91.63;100521.16;4839559;29;20215;-75
2023/03/15 05:07:47;;;;;;;9.15;1.83;;;;;;;0.71;91.57;100522.47;4821587;29;20244;-73
2023/03/15 05:10:43;;;;;;;4.97;1.85;;;;;;;0.76;91.74;100522.84;4825287;29;20216;-73
2023/03/15 05:13:34;;;;;;;2.22;1.55;;;;;;;0.72;91.36;100540.13;4825746;29;20241;-73
2023/03/15 05:16:42;;;;;;;9.15;1.88;;;;;;;0.72;90.79;100548.09;4826139;29;20713;-74
2023/03/15 05:19:41;;;;;;;4.85;1.83;;;;;;;0.72;90.77;100540.97;4824565;29;20582;-73
2023/03/15 05:23:03;;;;;;;7.80;2.00;;;;;;;0.82;90.15;100551.56;4823250;29;20212;-73
2023/03/15 05:26:09;;;;;;;7.63;1.83;;;;;;;0.91;90.66;100555.16;4825136;29;20747;-73
2023/03/15 05:29:15;;;;;;;2.40;2.10;;;;;;;0.91;89.54;100561.34;4822957;29;20292;-74
2023/03/15 05:32:26;;;;;;;3.80;2.30;;;;;;;0.95;89.32;100565.38;4824997;29;20255;-72
2023/03/15 05:35:43;;;;;;;2.67;1.30;;;;;;;1.03;89.27;100576.13;4810017;29;20215;-73
2023/03/15 05:38:46;;;;;;;3.42;1.80;;;;;;;1.13;88.95;100582.22;4823785;29;20728;-73
2023/03/15 05:41:30;;;;;;;4.90;1.40;;;;;;;1.28;88.70;100586.06;4823778;29;20640;-73
2023/03/15 05:44:32;;;;;;;8.18;2.60;;;;;;;1.46;87.45;100587.91;4824871;29;20209;-73
2023/03/15 05:47:31;;;;;;;12.52;2.00;;;;;;;1.51;86.94;100596.28;4812619;29;20319;-73
2023/03/15 05:50:41;;;;;;;2.72;1.60;;;;;;;1.56;86.51;100597.53;4825857;29;20212;-73
2023/03/15 05:53:33;;;;;;;6.07;2.45;;;;;;;1.65;85.97;100609.94;4824490;29;20260;-74
2023/03/15 05:56:30;;;;;;;5.47;1.77;;;;;;;1.75;86.50;100608.03;4832800;29;20473;-75
2023/03/15 05:59:28;;;;;;;4.05;2.30;;;;;;;1.73;85.37;100618.06;4819377;29;20208;-73
2023/03/15 06:02:32;;;;;;;13.27;3.95;;;;;;;1.73;85.59;100617.22;4817715;29;20208;-74
2023/03/15 06:05:23;;;;;;;15.48;3.08;;;;;;;1.77;85.92;100623.91;4824398;29;20212;-74
2023/03/15 06:10:56;;;;;;;5.15;2.20;;;;;;;1.77;85.03;100631.91;4838791;29;20696;-74
2023/03/15 06:13:45;;;;;;;10.35;2.28;;;;;;;1.82;85.27;100637.63;4824056;29;20204;-73
2023/03/15 06:16:57;;;;;;;7.72;2.47;;;;;;;1.97;84.95;100646.78;4821409;29;20208;-70
2023/03/15 06:19:39;;;;;;;6.72;2.10;;;;;;;2.10;82.95;100652.56;4818563;29;20209;-73
2023/03/15 06:22:12;;;;;;;8.20;2.90;;;;;;;2.24;83.58;100650.34;4835579;29;20219;-73
2023/03/15 06:25:09;;;;;;;4.20;2.00;;;;;;;2.45;81.74;100666.88;4813977;29;20205;-74
2023/03/15 06:27:50;;;;;;;3.88;1.75;;;;;;;2.59;81.66;100660.97;4836598;29;20732;-74
2023/03/15 06:30:26;;;;;;;7.68;2.25;;;;;;;2.60;80.91;100668.00;4822995;29;20201;-73
2023/03/15 06:33:11;;;;;;;7.55;1.90;;;;;;;2.60;81.32;100668.00;4823724;29;20209;-74
2023/03/15 06:35:50;;;;;;;4.75;2.67;;;;;;;2.47;82.06;100681.72;4817208;29;20203;-73
2023/03/15 06:41:57;;;;;;;5.00;1.73;;;;;;;2.41;83.03;100692.22;4833785;29;20204;-72
2023/03/15 06:44:42;;;;;;;6.93;2.70;;;;;;;2.44;83.64;100699.91;4823355;29;20211;-73
2023/03/15 06:47:40;;;;;;;2.45;1.58;;;;;;;2.47;84.28;100710.31;4823766;29;20599;-73
2023/03/15 06:50:22;;;;;;;7.30;2.55;;;;;;;2.31;86.02;100707.47;4830197;29;20213;-73
2023/03/15 06:53:21;;;;;;;5.20;2.22;;;;;;;2.35;87.30;100723.03;4821948;29;20232;-74
2023/03/15 06:56:02;;;;;;;5.22;2.42;;;;;;;2.20;88.69;100721.91;4837899;29;20228;-73
2023/03/15 06:58:44;;;;;;;6.78;2.45;;;;;;;2.23;88.71;100720.78;4822980;29;20258;-73
2023/03/15 07:01:44;;;;;;;5.40;2.92;;;;;;;2.32;89.13;100730.53;4823079;29;20204;-75
2023/03/15 07:04:21;;;;;;;7.10;3.40;;;;;;;2.57;89.09;100737.75;4838592;29;20204;-73
2023/03/15 07:06:57;;;;;;;11.95;3.00;;;;;;;2.72;88.37;100730.84;4823269;29;20205;-74
2023/03/15 07:09:36;;;;;;;6.20;2.50;;;;;;;2.54;87.80;100735.38;4825614;29;20232;-73
2023/03/15 07:12:13;;;;;;;18.92;4.97;;;;;;;2.48;87.61;100733.31;4828396;29;20281;-73
2023/03/15 07:14:52;;;;;;;10.32;3.58;;;;;;;2.80;88.28;100728.25;4825454;29;20592;-72
2023/03/15 07:17:40;;;;;;;5.28;2.05;;;;;;;2.71;86.15;100731.84;4842134;29;20216;-74
2023/03/15 07:20:15;;;;;;;4.15;1.90;;;;;;;2.90;86.97;100734.34;4824619;29;20291;-75
2023/03/15 07:22:49;;;;;;;7.63;2.55;;;;;;;3.01;85.74;100734.06;4841891;29;20207;-75
2023/03/15 07:25:40;;;;;;;4.78;2.05;;;;;;;3.10;85.07;100731.47;4828079;29;20231;-73
2023/03/15 07:28:30;;;;;;;3.22;2.40;;;;;;;3.18;84.30;100736.84;4827024;29;20229;-73
2023/03/15 07:31:10;;;;;;;3.90;2.20;;;;;;;3.21;84.18;100739.19;4827968;29;20220;-74
2023/03/15 07:33:48;;;;;;;20.38;3.35;;;;;;;3.33;84.67;100752.16;4826533;29;20857;-74
2023/03/15 07:36:25;;;;;;;5.55;3.58;;;;;;;3.43;83.00;100752.03;4820329;29;20674;-75
2023/03/15 07:39:02;;;;;;;6.88;2.85;;;;;;;3.46;83.20;100749.88;4832486;29;20231;-75
2023/03/15 07:41:36;;;;;;;7.70;2.22;;;;;;;3.43;82.76;100760.06;4822784;29;20619;-73
2023/03/15 07:45:14;;;;;;;6.50;2.90;;;;;;;3.33;81.37;100759.34;4826276;29;20237;-74
2023/03/15 07:50:42;;;;;;;10.13;2.30;;;;;;;3.43;81.61;100766.25;4826012;29;20209;-73
2023/03/15 07:53:24;;;;;;;6.68;2.20;;;;;;;3.39;80.86;100767.53;4826210;29;20719;-74
2023/03/15 07:56:23;;;;;;;5.32;2.45;;;;;;;3.36;79.58;100767.03;4825687;29;20224;-74
2023/03/15 07:59:00;;;;;;;9.85;2.40;;;;;;;3.38;79.83;100773.91;4838641;29;20245;-73
2023/03/15 08:01:40;;;;;;;11.93;2.92;;;;;;;3.43;78.82;100782.31;4807892;29;20295;-74
2023/03/15 08:04:41;;;;;;;11.68;3.47;;;;;;;3.46;78.83;100786.50;4827901;29;20216;-73
2023/03/15 08:07:14;;;;;;;6.78;2.95;;;;;;;3.40;80.05;100779.94;4825810;29;20608;-73
2023/03/15 08:09:48;;;;;;;7.03;2.97;;;;;;;3.32;78.92;100784.41;4829272;29;20205;-72
2023/03/15 08:12:29;;;;;;;6.63;2.40;;;;;;;3.55;78.93;100798.91;4840817;29;20239;-75
2023/03/15 08:15:03;;;;;;;7.70;2.65;;;;;;;3.17;78.62;100804.69;4825826;29;20232;-75
2023/03/15 08:17:35;;;;;;;9.65;2.28;;;;;;;3.22;79.02;100803.22;4832782;29;20648;-74
2023/03/15 08:20:16;;;;;;;8.98;3.15;;;;;;;3.55;80.01;100796.22;4840333;29;20335;-73
2023/03/15 08:22:54;;;;;;;4.65;2.60;;;;;;;3.46;78.31;100800.72;4834079;29;20192;-74
2023/03/15 08:25:35;;;;;;;17.23;3.10;;;;;;;3.45;78.72;100800.84;4825205;29;20242;-75
2023/03/15 08:28:11;;;;;;;5.40;2.75;;;;;;;3.49;79.15;100812.91;4827259;29;20319;-73
2023/03/15 08:30:51;;;;;;;4.38;2.33;;;;;;;3.43;78.24;100811.72;4825054;29;20215;-75
2023/03/15 08:33:29;;;;;;;7.25;3.50;;;;;;;3.51;78.56;100816.28;4830574;29;20277;-73
2023/03/15 08:36:05;;;;;;;3.97;3.00;;;;;;;3.29;77.67;100822.97;4841211;29;20204;-73
2023/03/15 08:38:38;;;;;;;10.73;3.60;;;;;;;3.40;78.53;100825.41;4826039;29;20703;-73
2023/03/15 08:41:18;;;;;;;11.60;3.63;;;;;;;3.50;77.48;100822.63;4825898;29;20215;-73
2023/03/15 08:43:58;;;;;;;14.57;3.13;;;;;;;3.66;77.68;100830.75;4826163;29;20213;-73
2023/03/15 08:46:33;;;;;;;9.93;3.53;;;;;;;3.65;77.02;100834.41;4825178;29;20224;-74
2023/03/15 08:49:07;;;;;;;4.97;2.67;;;;;;;3.50;76.81;100836.84;4841587;29;20247;-74
2023/03/15 08:51:48;;;;;;;6.25;3.15;;;;;;;3.25;75.12;100844.84;4823134;29;20304;-74
2023/03/15 08:54:37;;;;;;;4.95;2.53;;;;;;;2.96;76.04;100845.13;4835831;29;20606;-74
2023/03/15 08:57:13;;;;;;;4.18;2.35;;;;;;;2.95;76.26;100846.94;4827557;29;20240;-75
2023/03/15 08:59:45;;;;;;;6.38;2.97;;;;;;;3.01;76.96;100857.03;4828414;29;20265;-76
2023/03/15 09:02:17;;;;;;;8.00;2.55;;;;;;;3.04;76.31;100864.78;4827705;29;20197;-75
2023/03/15 09:04:55;;;;;;;4.57;2.80;;;;;;;3.06;75.86;100859.25;4826905;29;20684;-74
2023/03/15 09:07:35;;;;;;;4.75;2.95;;;;;;;3.29;75.88;100865.78;4842730;29;20804;-75
2023/03/15 09:10:12;;;;;;;4.45;2.55;;;;;;;3.30;76.26;100869.28;4824956;29;20307;-73
2023/03/15 09:12:52;;;;;;;3.65;2.40;;;;;;;3.40;75.63;100873.56;4825499;29;20291;-74
2023/03/15 09:15:32;;;;;;;6.40;3.17;;;;;;;3.63;75.43;100879.22;4840160;29;20204;-74
2023/03/15 09:18:12;;;;;;;6.85;2.97;;;;;;;3.82;74.62;100883.53;4842112;29;20255;-75
2023/03/15 09:20:53;;;;;;;8.30;2.80;;;;;;;3.82;74.37;100887.06;4831968;29;20209;-73
2023/03/15 09:23:34;;;;;;;4.63;2.63;;;;;;;3.31;74.49;100884.34;4837137;29;20197;-74
2023/03/15 09:26:28;;;;;;;5.80;3.15;;;;;;;3.46;76.07;100890.81;4826920;29;20213;-74
2023/03/15 09:29:06;;;;;;;6.00;3.05;;;;;;;3.69;75.13;100897.31;4850049;29;20229;-74
2023/03/15 09:31:48;;;;;;;4.97;2.30;;;;;;;3.55;74.46;100899.75;4839556;29;20565;-75
2023/03/15 09:34:22;;;;;;;8.23;3.95;;;;;;;3.77;74.73;100905.44;4825014;29;20235;-74
2023/03/15 09:39:59;;;;;;;2.90;2.15;;;;;;;4.00;73.37;100910.22;4844985;29;20207;-76
2023/03/15 09:42:46;;;;;;;4.20;2.60;;;;;;;4.17;72.97;100909.28;4810613;29;20193;-74
2023/03/15 09:45:35;;;;;;;4.95;3.28;;;;;;;4.49;69.99;100914.81;4839795;29;20300;-74
2023/03/15 09:48:15;;;;;;;16.15;5.38;;;;;;;4.64;70.12;100923.91;4818039;29;20232;-74
2023/03/15 09:50:52;;;;;;;2.63;2.08;;;;;;;4.85;69.52;100914.56;4808936;29;20205;-74
2023/03/15 09:53:32;;;;;;;5.47;3.10;;;;;;;5.18;68.33;100921.66;4823301;29;20614;-74
2023/03/15 09:56:30;;;;;;;4.93;3.38;;;;;;;5.25;66.42;100918.13;4829116;29;20207;-73
2023/03/15 09:59:08;;;;;;;5.72;2.60;;;;;;;4.89;67.40;100929.31;4807649;29;20239;-74
2023/03/15 10:01:51;;;;;;;7.20;2.75;;;;;;;5.19;66.75;100926.00;4823865;29;20267;-74
2023/03/15 10:04:39;;;;;;;6.35;2.60;;;;;;;5.33;66.27;100932.53;4828906;29;20236;-74
2023/03/15 10:07:32;;;;;;;5.85;2.85;;;;;;;5.13;66.91;100945.47;4814748;29;20230;-74
2023/03/15 10:10:15;;;;;;;3.00;2.35;;;;;;;4.97;67.18;100945.44;4838728;29;20233;-75
2023/03/15 10:13:07;;;;;;;5.65;2.53;;;;;;;4.87;65.77;100939.38;4823520;29;20201;-74
2023/03/15 10:15:59;;;;;;;4.57;2.90;;;;;;;5.18;65.87;100941.25;4824977;29;20205;-74
2023/03/15 10:18:58;;;;;;;4.85;1.75;;;;;;;4.95;65.25;100947.41;4819141;29;20576;-73
2023/03/15 10:21:56;;;;;;;8.38;2.63;;;;;;;4.89;63.99;100948.91;4839323;29;20214;-73
2023/03/15 10:27:38;;;;;;;9.20;2.03;;;;;;;5.65;63.81;100949.50;4836015;29;20816;-73
2023/03/15 10:30:24;;;;;;;3.92;2.50;;;;;;;5.67;63.55;100943.94;4823226;29;20206;-73
2023/03/15 10:33:17;;;;;;;5.85;3.92;;;;;;;4.80;64.67;100950.75;4824709;29;20220;-73
2023/03/15 10:35:52;;;;;;;3.97;3.00;;;;;;;4.95;65.62;100959.00;4828057;29;20322;-74
2023/03/15 10:38:43;;;;;;;3.58;2.30;;;;;;;4.85;64.98;100965.50;4825839;29;20232;-73
2023/03/15 10:44:26;;;;;;;5.43;2.30;;;;;;;5.19;65.71;100967.09;4824022;29;20299;-75
2023/03/15 10:47:10;;;;;;;5.15;2.40;;;;;;;5.74;63.11;100963.75;4833352;29;20289;-74
2023/03/15 10:50:03;;;;;;;5.20;2.30;;;;;;;5.77;61.70;100955.34;4813909;29;20237;-73
2023/03/15 10:52:42;;;;;;;5.50;2.25;;;;;;;6.10;61.87;100954.31;4824342;29;20194;-73
2023/03/15 10:55:17;;;;;;;14.95;10.93;;;;;;;6.00;61.88;100956.34;4817430;29;20223;-75
2023/03/15 10:57:58;;;;;;;7.32;3.35;;;;;;;5.78;61.51;100964.25;4822250;29;20237;-73
2023/03/15 11:00:35;;;;;;;4.38;1.80;;;;;;;5.51;62.58;100966.28;4823959;29;20285;-72
2023/03/15 11:03:20;;;;;;;4.15;2.13;;;;;;;5.32;63.45;100965.78;4823888;29;20215;-73
2023/03/15 11:05:54;;;;;;;3.38;2.42;;;;;;;5.00;62.66;100966.53;4833069;29;20580;-72
2023/03/15 11:08:39;;;;;;;6.03;2.78;;;;;;;4.87;63.33;100966.19;4826688;29;20802;-73
2023/03/15 11:11:17;;;;;;;2.90;2.70;;;;;;;5.01;62.88;100970.91;4832929;29;20258;-74
2023/03/15 11:14:02;;;;;;;6.85;1.60;;;;;;;5.01;62.22;100973.59;4822120;29;20225;-73
2023/03/15 11:16:36;;;;;;;5.90;2.35;;;;;;;5.33;61.31;100964.75;4822880;29;20205;-72
2023/03/15 11:19:32;;;;;;;6.68;2.10;;;;;;;5.46;59.92;100965.94;4828477;29;20719;-72
2023/03/15 11:22:31;;;;;;;5.75;2.10;;;;;;;5.99;59.85;100975.34;4826219;29;20209;-73
2023/03/15 11:25:13;;;;;;;9.18;2.20;;;;;;;6.51;58.79;100963.09;4820801;29;20297;-73
2023/03/15 11:27:52;;;;;;;6.88;2.03;;;;;;;7.10;58.09;100957.25;4837359;29;20245;-74
2023/03/15 11:30:30;;;;;;;3.70;2.25;;;;;;;7.40;56.98;100973.34;4804364;29;20214;-73
2023/03/15 11:33:10;;;;;;;8.98;2.50;;;;;;;7.43;56.23;100973.00;4819642;29;20712;-73
2023/03/15 11:35:48;;;;;;;3.72;1.90;;;;;;;7.12;56.04;100974.88;4820513;29;20222;-72
2023/03/15 11:38:33;;;;;;;3.15;2.13;;;;;;;6.22;57.82;100973.59;4822077;29;20310;-74
2023/03/15 11:41:23;;;;;;;8.35;2.30;;;;;;;5.71;58.71;100971.31;4823915;29;20210;-73
2023/03/15 11:44:18;;;;;;;8.98;2.97;;;;;;;5.67;59.32;100978.84;4830279;29;20203;-73
2023/03/15 11:47:04;;;;;;;5.13;2.05;;;;;;;6.11;57.90;100979.31;4822711;29;20280;-73
2023/03/15 11:49:50;;;;;;;2.75;1.55;;;;;;;6.14;58.22;100979.00;4835430;29;20206;-72
2023/03/15 11:52:32;;;;;;;5.68;1.95;;;;;;;6.72;56.19;100973.25;4849394;29;20216;-74
2023/03/15 11:55:20;;;;;;;3.58;2.10;;;;;;;7.26;56.80;100981.38;4822863;29;20248;-73
2023/03/15 11:57:52;;;;;;;2.00;1.55;;;;;;;7.50;54.80;100969.59;4822788;29;20238;-73
2023/03/15 12:00:56;;;;;;;4.53;1.98;;;;;;;6.77;55.77;100976.25;4837608;29;20254;-73
2023/03/15 12:03:39;;;;;;;2.92;1.67;;;;;;;6.04;57.39;100973.81;4821278;29;20226;-73
2023/03/15 12:06:39;;;;;;;7.72;2.63;;;;;;;6.16;57.81;100978.81;4825019;29;20233;-74
2023/03/15 12:09:55;;;;;;;5.53;2.88;;;;;;;6.15;57.66;100985.22;4840416;29;20317;-72
2023/03/15 12:12:58;;;;;;;8.18;2.95;;;;;;;6.20;56.49;100972.94;4818442;29;20201;-73
2023/03/15 12:15:46;;;;;;;3.25;1.25;;;;;;;5.81;54.82;100966.59;4841765;29;20263;-74
2023/03/15 12:18:41;;;;;;;2.55;1.48;;;;;;;5.99;56.15;100965.44;4840201;29;20230;-75
2023/03/15 12:21:22;;;;;;;11.63;2.25;;;;;;;6.65;56.15;100972.28;4831433;29;20221;-74
2023/03/15 12:24:05;;;;;;;5.65;1.58;;;;;;;6.84;56.07;100977.22;4830310;29;20214;-73
2023/03/15 12:26:51;;;;;;;4.88;2.40;;;;;;;6.77;55.59;100976.25;4830801;29;20329;-74
2023/03/15 12:29:31;;;;;;;2.13;1.58;;;;;;;7.16;54.29;100976.22;4835909;29;20271;-73
2023/03/15 12:32:17;;;;;;;2.85;1.10;;;;;;;7.93;52.69;100979.63;4824944;29;20239;-74
2023/03/15 12:34:55;;;;;;;2.28;1.50;;;;;;;8.22;51.84;100974.28;4840353;29;20225;-74
2023/03/15 12:37:41;;;;;;;1.73;1.50;;;;;;;8.54;51.05;100969.56;4825934;29;20238;-74
2023/03/15 12:40:51;;;;;;;4.45;1.75;;;;;;;8.15;50.68;100978.72;4832497;29;20564;-75
2023/03/15 12:43:41;;;;;;;4.63;1.98;;;;;;;7.73;51.57;100983.84;4831833;29;20205;-73
2023/03/15 12:46:49;;;;;;;6.68;2.28;;;;;;;7.66;51.65;100989.13;4832115;29;20218;-73
2023/03/15 12:49:44;;;;;;;4.68;1.55;;;;;;;7.08;50.18;100983.47;4822611;29;20214;-73
2023/03/15 12:56:38;;;;;;;5.68;1.55;;;;;;;7.25;49.35;100985.91;4832787;29;20226;-75
2023/03/15 12:59:53;;;;;;;4.63;1.50;;;;;;;7.10;48.97;100993.06;4825939;29;20362;-71
2023/03/15 13:02:33;;;;;;;6.10;2.05;;;;;;;7.32;46.49;100986.00;4791773;29;20294;-73
2023/03/15 13:05:26;;;;;;;5.60;1.98;;;;;;;8.02;47.48;100983.94;4825242;29;20734;-73
2023/03/15 13:08:13;;;;;;;5.43;1.98;;;;;;;8.31;46.76;100995.78;4840024;29;20230;-74
2023/03/15 13:11:13;;;;;;;1.90;1.30;;;;;;;8.57;45.71;100978.13;4831632;29;20207;-74
2023/03/15 13:14:22;;;;;;;3.88;1.65;;;;;;;8.84;45.51;100983.88;4807413;29;20219;-75
2023/03/15 13:17:16;;;;;;;2.83;1.15;;;;;;;8.49;43.30;100982.78;4836986;29;20575;-72
2023/03/15 13:20:00;;;;;;;4.88;1.45;;;;;;;8.36;42.31;100974.50;4831502;29;20202;-74
2023/03/15 13:22:48;;;;;;;1.00;0.70;;;;;;;8.59;40.95;100969.84;4839408;29;20219;-74
2023/03/15 13:25:40;;;;;;;5.68;1.90;;;;;;;8.77;40.75;100970.28;4845279;29;20202;-73
2023/03/15 13:28:24;;;;;;;2.20;1.05;;;;;;;8.06;41.94;100977.16;4815153;29;20274;-71
2023/03/15 13:30:59;;;;;;;7.82;2.03;;;;;;;8.08;43.74;100988.59;4823982;29;20311;-72
2023/03/15 13:33:57;;;;;;;2.20;1.35;;;;;;;8.20;44.40;100992.50;4824073;29;20611;-73
2023/03/15 13:39:57;;;;;;;4.25;1.90;;;;;;;6.82;51.29;101008.00;4809694;29;20201;-72
2023/03/15 13:42:29;;;;;;;4.00;1.95;;;;;;;6.27;56.66;101026.84;4824049;29;20289;-73
2023/03/15 13:45:24;;;;;;;6.90;1.58;;;;;;;5.50;63.03;101055.88;4823901;29;20202;-73
2023/03/15 13:48:08;;;;;;;6.80;1.73;;;;;;;5.00;69.10;101055.88;4823925;29;20225;-71